Milwaukee, WI (53213)

10:04 AM CST on February 14, 2016 (GMT -0600)
Honey Creek, Glenview Heights | | Change Station
CLOSE
Current Station
Personal Weather Station
Location: Wauwatosa, WI
Elevation: 692 ft
Nearby Weather Stations

Elev 692 ft 43.04 °N, 88.01 °W | Updated 24 seconds ago

Overcast
Overcast
18.9 °F
Feels Like 19 °F
N
2.2
Wind Variable Wind from South
Gusts 5.4 mph

Today
High -- | Low -- °F
--% Chance of Precip.
Yesterday
High -- | Low -- °F
Precip. -- in
Pressure 30.26 in
Visibility 6.0 miles
Clouds Overcast 2700 ft
Windchill 19 °F
Dew Point 7 °F
Humidity 60%
Rainfall 0.00 in
Snow Depth Not available.
6:51 AM 5:21 PM
Waxing Crescent, 43% visible
METAR KMWC 141545Z 17009KT 6SM -SN OVC027 M08/M13 A3026
Pressure 30.26 in
Visibility 6.0 miles
Clouds Overcast 2700 ft
Windchill 19 °F
Dew Point 7 °F
Humidity 60%
Rainfall 0.00 in
Snow Depth Not available.
6:51 AM 5:21 PM
Waxing Crescent, 43% visible
METAR KMWC 141545Z 17009KT 6SM -SN OVC027 M08/M13 A3026

10-Day Weather Forecast

Almanac

Astronomy

Feb. 14, 2016 Rise Set
Actual Time
Civil Twilight
Nautical Twilight
Astronomical Twilight
Moon
Length of Visible Light
Length of Day
Tomorrow will be .
, % of the Moon is Illuminated

Today's Extremes

State Highs State Lows

Community

WunderPhotos

Upload Photos

1,892,819 photos uploaded!

WunderBlog® & News

Nearby

Air Quality

  Air Quality AQ Index Pollutant
Not available.

Snow Depth

Station Depth Elevation

Earthquake Activity

City Distance Mag. Time & Date
Minimum magnitude displayed is 2.5.

Coastal Water Temperatures

Place Temperature

Stations

Nearby Weather Stations

Station Location Temp. Windchill Dew Point Humidity Wind Precip. Elev Updated Type
                   

Watches & Warnings

There are currently no watches in effect.